Portada
METAR-TAF:

METAR-TAF

Aeroports :

Beja, Portugal

latitud: 38-04-40N, longitud: 007-55-57W, altitud: 193 m

Observació

L'informe es va fer fa 1 hora i 17 minuts, a les 18:00 UTC
Vent 6 kt del Nord-Oest
Temperatura 31°C
Humitat 26%
Pressió 1018 hPa
Visibilitat 10 km o més
sense núvols per sota de 1500 mi sense presència de cumulonimbus.

METAR: LPBJ 211800Z 32006KT CAVOK 31/09 Q1018

Hora: 20:17 (19:17 UTC)

Pronòstic

L'informe es va fer fa 8 hores i 15 minuts, a les 11:02 UTC
Pronòstic vàlid del 21 a les 12 UTC al 22 a les 12 UTC
Vent 8 kt del Nord
Visibilitat 10 km o més
sense núvols per sota de 1500 mi sense presència de cumulonimbus.
Temporalment
l' 21 a les 17 UTC al 21 a les 21 UTC
Vent 10 kt del Nord-Oest amb ràfegues de 20 kt
Evolucionant progressivament
l' 22 a les 06 UTC al 22 a les 09 UTC
Vent 5 kt del Est/Sud-Est

TAF: LPBJ 211102Z 2112/2212 35008KT CAVOK TEMPO 2117/2121 32010G20KT BECMG 2206/2209 11005KT

Observacions i pronòstics meteorològics de més de 4000 aeroports (METAR i TAF).

Les estacions disponibles són els punts grocs i vermells al mapa.

Posi el ratolí al punt desitjat per veure el nom de l'estació.

Feu clic per veure les observacions i els pronòstics meteorològics.

Per canviar el mapa: feu clic els botons verds amb una creu de color negre per apropar; al botó verd amb un guió per allunyar la imatge; o en les fletxes verdes per a mapes adjacents.


METAR-TAF: